sensor_id;sensor_type;location;lat;lon;timestamp;temperature;humidity
50162;DHT22;36061;48.116;11.612;2023-03-01T00:01:41;1.40;99.90
50162;DHT22;36061;48.116;11.612;2023-03-01T00:04:08;1.40;99.90
50162;DHT22;36061;48.116;11.612;2023-03-01T00:06:35;1.40;99.90
50162;DHT22;36061;48.116;11.612;2023-03-01T00:09:03;1.30;99.90
50162;DHT22;36061;48.116;11.612;2023-03-01T00:11:31;1.30;99.90
50162;DHT22;36061;48.116;11.612;2023-03-01T00:14:00;1.40;99.90
50162;DHT22;36061;48.116;11.612;2023-03-01T00:16:29;1.30;99.90
50162;DHT22;36061;48.116;11.612;2023-03-01T00:18:58;1.30;99.90
50162;DHT22;36061;48.116;11.612;2023-03-01T00:21:26;1.30;99.90
50162;DHT22;36061;48.116;11.612;2023-03-01T00:23:54;1.30;99.90
50162;DHT22;36061;48.116;11.612;2023-03-01T00:26:24;1.30;99.90
50162;DHT22;36061;48.116;11.612;2023-03-01T00:28:51;1.30;99.90
50162;DHT22;36061;48.116;11.612;2023-03-01T00:31:20;1.30;99.90
50162;DHT22;36061;48.116;11.612;2023-03-01T00:33:47;1.20;99.90
50162;DHT22;36061;48.116;11.612;2023-03-01T00:36:17;1.20;99.90
50162;DHT22;36061;48.116;11.612;2023-03-01T00:38:45;1.20;99.90
50162;DHT22;36061;48.116;11.612;2023-03-01T00:41:14;1.30;99.90
50162;DHT22;36061;48.116;11.612;2023-03-01T00:43:44;1.20;99.90
50162;DHT22;36061;48.116;11.612;2023-03-01T00:46:13;1.30;99.90
50162;DHT22;36061;48.116;11.612;2023-03-01T00:48:41;1.20;99.90
50162;DHT22;36061;48.116;11.612;2023-03-01T00:51:09;1.30;99.90
50162;DHT22;36061;48.116;11.612;2023-03-01T00:53:39;1.30;99.90
50162;DHT22;36061;48.116;11.612;2023-03-01T00:56:08;1.30;99.90
50162;DHT22;36061;48.116;11.612;2023-03-01T00:58:35;1.30;99.90
50162;DHT22;36061;48.116;11.612;2023-03-01T01:01:07;1.20;99.90
50162;DHT22;36061;48.116;11.612;2023-03-01T01:03:43;1.20;99.90
50162;DHT22;36061;48.116;11.612;2023-03-01T01:06:14;1.30;99.90
50162;DHT22;36061;48.116;11.612;2023-03-01T01:08:43;1.30;99.90
50162;DHT22;36061;48.116;11.612;2023-03-01T01:11:12;1.30;99.90
50162;DHT22;36061;48.116;11.612;2023-03-01T01:13:39;1.30;99.90
50162;DHT22;36061;48.116;11.612;2023-03-01T01:16:07;1.30;99.90
50162;DHT22;36061;48.116;11.612;2023-03-01T01:18:34;1.30;99.90
50162;DHT22;36061;48.116;11.612;2023-03-01T01:21:06;1.40;99.90
50162;DHT22;36061;48.116;11.612;2023-03-01T01:23:35;1.30;99.90
50162;DHT22;36061;48.116;11.612;2023-03-01T01:26:08;1.40;99.90
50162;DHT22;36061;48.116;11.612;2023-03-01T01:28:36;1.30;99.90
50162;DHT22;36061;48.116;11.612;2023-03-01T01:31:03;1.20;99.90
50162;DHT22;36061;48.116;11.612;2023-03-01T01:33:31;1.20;99.90
50162;DHT22;36061;48.116;11.612;2023-03-01T01:35:58;1.30;99.90
50162;DHT22;36061;48.116;11.612;2023-03-01T01:38:25;1.20;99.90
50162;DHT22;36061;48.116;11.612;2023-03-01T01:40:53;1.20;99.90
50162;DHT22;36061;48.116;11.612;2023-03-01T01:43:24;1.20;99.90
50162;DHT22;36061;48.116;11.612;2023-03-01T01:45:54;1.20;99.90
50162;DHT22;36061;48.116;11.612;2023-03-01T01:48:24;1.20;99.90
50162;DHT22;36061;48.116;11.612;2023-03-01T01:51:09;1.30;99.90
50162;DHT22;36061;48.116;11.612;2023-03-01T01:53:38;1.20;99.90
50162;DHT22;36061;48.116;11.612;2023-03-01T01:56:08;1.20;99.90
50162;DHT22;36061;48.116;11.612;2023-03-01T01:58:37;1.20;99.90
50162;DHT22;36061;48.116;11.612;2023-03-01T02:01:06;1.20;99.90
50162;DHT22;36061;48.116;11.612;2023-03-01T02:03:34;1.20;99.90
50162;DHT22;36061;48.116;11.612;2023-03-01T02:06:12;1.20;99.90
50162;DHT22;36061;48.116;11.612;2023-03-01T02:08:42;1.20;99.90
50162;DHT22;36061;48.116;11.612;2023-03-01T02:11:11;1.20;99.90
50162;DHT22;36061;48.116;11.612;2023-03-01T02:13:43;1.20;99.90
50162;DHT22;36061;48.116;11.612;2023-03-01T02:16:14;1.10;99.90
50162;DHT22;36061;48.116;11.612;2023-03-01T02:18:42;1.10;99.90
50162;DHT22;36061;48.116;11.612;2023-03-01T02:21:21;1.10;99.90
50162;DHT22;36061;48.116;11.612;2023-03-01T02:23:53;1.10;99.90
50162;DHT22;36061;48.116;11.612;2023-03-01T02:26:27;1.10;99.90
50162;DHT22;36061;48.116;11.612;2023-03-01T02:29:00;1.10;99.90
50162;DHT22;36061;48.116;11.612;2023-03-01T02:31:27;1.20;99.90
50162;DHT22;36061;48.116;11.612;2023-03-01T02:34:14;1.20;99.90
50162;DHT22;36061;48.116;11.612;2023-03-01T02:36:45;1.20;99.90
50162;DHT22;36061;48.116;11.612;2023-03-01T02:39:15;1.20;99.90
50162;DHT22;36061;48.116;11.612;2023-03-01T02:41:48;1.20;99.90
50162;DHT22;36061;48.116;11.612;2023-03-01T02:44:17;1.20;99.90
50162;DHT22;36061;48.116;11.612;2023-03-01T02:46:47;1.10;99.90
50162;DHT22;36061;48.116;11.612;2023-03-01T02:49:22;1.10;99.90
50162;DHT22;36061;48.116;11.612;2023-03-01T02:52:21;1.10;99.90
50162;DHT22;36061;48.116;11.612;2023-03-01T02:54:52;1.00;99.90
50162;DHT22;36061;48.116;11.612;2023-03-01T02:57:23;1.00;99.90
50162;DHT22;36061;48.116;11.612;2023-03-01T02:59:55;1.10;99.90
50162;DHT22;36061;48.116;11.612;2023-03-01T03:02:24;1.00;99.90
50162;DHT22;36061;48.116;11.612;2023-03-01T03:05:06;1.10;99.90
50162;DHT22;36061;48.116;11.612;2023-03-01T03:07:36;1.00;99.90
50162;DHT22;36061;48.116;11.612;2023-03-01T03:10:05;1.00;99.90
50162;DHT22;36061;48.116;11.612;2023-03-01T03:12:33;1.00;99.90
50162;DHT22;36061;48.116;11.612;2023-03-01T03:15:02;1.00;99.90
50162;DHT22;36061;48.116;11.612;2023-03-01T03:17:34;1.00;99.90
50162;DHT22;36061;48.116;11.612;2023-03-01T03:20:02;1.00;99.90
50162;DHT22;36061;48.116;11.612;2023-03-01T03:22:31;1.00;99.90
50162;DHT22;36061;48.116;11.612;2023-03-01T03:25:00;1.00;99.90
50162;DHT22;36061;48.116;11.612;2023-03-01T03:27:27;1.00;99.90
50162;DHT22;36061;48.116;11.612;2023-03-01T03:29:55;0.90;99.90
50162;DHT22;36061;48.116;11.612;2023-03-01T03:32:23;0.90;99.90
50162;DHT22;36061;48.116;11.612;2023-03-01T03:34:50;1.00;99.90
50162;DHT22;36061;48.116;11.612;2023-03-01T03:37:18;1.00;99.90
50162;DHT22;36061;48.116;11.612;2023-03-01T03:39:59;0.90;99.90
50162;DHT22;36061;48.116;11.612;2023-03-01T03:42:26;0.90;99.90
50162;DHT22;36061;48.116;11.612;2023-03-01T03:44:54;0.90;99.90
50162;DHT22;36061;48.116;11.612;2023-03-01T03:47:22;1.00;99.90
50162;DHT22;36061;48.116;11.612;2023-03-01T03:49:49;1.00;99.90
50162;DHT22;36061;48.116;11.612;2023-03-01T03:52:16;0.90;99.90
50162;DHT22;36061;48.116;11.612;2023-03-01T03:54:44;1.00;99.90
50162;DHT22;36061;48.116;11.612;2023-03-01T03:57:11;0.90;99.90
50162;DHT22;36061;48.116;11.612;2023-03-01T03:59:38;0.90;99.90
50162;DHT22;36061;48.116;11.612;2023-03-01T04:02:05;0.90;99.90
50162;DHT22;36061;48.116;11.612;2023-03-01T04:04:36;0.80;99.90
50162;DHT22;36061;48.116;11.612;2023-03-01T04:07:03;0.80;99.90
50162;DHT22;36061;48.116;11.612;2023-03-01T04:09:30;0.70;99.90
50162;DHT22;36061;48.116;11.612;2023-03-01T04:11:57;0.70;99.90
50162;DHT22;36061;48.116;11.612;2023-03-01T04:14:24;0.70;99.90
50162;DHT22;36061;48.116;11.612;2023-03-01T04:16:51;0.70;99.90
50162;DHT22;36061;48.116;11.612;2023-03-01T04:19:19;0.70;99.90
50162;DHT22;36061;48.116;11.612;2023-03-01T04:21:47;0.70;99.90
50162;DHT22;36061;48.116;11.612;2023-03-01T04:24:14;0.70;99.90
50162;DHT22;36061;48.116;11.612;2023-03-01T04:26:42;0.60;99.90
50162;DHT22;36061;48.116;11.612;2023-03-01T04:29:09;0.70;99.90
50162;DHT22;36061;48.116;11.612;2023-03-01T04:31:36;0.70;99.90
50162;DHT22;36061;48.116;11.612;2023-03-01T04:34:03;0.70;99.90
50162;DHT22;36061;48.116;11.612;2023-03-01T04:36:31;0.70;99.90
50162;DHT22;36061;48.116;11.612;2023-03-01T04:39:02;0.60;99.90
50162;DHT22;36061;48.116;11.612;2023-03-01T04:41:38;0.70;99.90
50162;DHT22;36061;48.116;11.612;2023-03-01T04:44:06;0.60;99.90
50162;DHT22;36061;48.116;11.612;2023-03-01T04:46:35;0.60;99.90
50162;DHT22;36061;48.116;11.612;2023-03-01T04:49:03;0.60;99.90
50162;DHT22;36061;48.116;11.612;2023-03-01T04:51:31;0.60;99.90
50162;DHT22;36061;48.116;11.612;2023-03-01T04:53:58;0.50;99.90
50162;DHT22;36061;48.116;11.612;2023-03-01T04:56:27;0.60;99.90
50162;DHT22;36061;48.116;11.612;2023-03-01T04:58:54;0.60;99.90
50162;DHT22;36061;48.116;11.612;2023-03-01T05:01:22;0.50;99.90
50162;DHT22;36061;48.116;11.612;2023-03-01T05:03:50;0.50;99.90
50162;DHT22;36061;48.116;11.612;2023-03-01T05:06:19;0.40;99.90
50162;DHT22;36061;48.116;11.612;2023-03-01T05:08:47;0.40;99.90
50162;DHT22;36061;48.116;11.612;2023-03-01T05:11:14;0.40;99.90
50162;DHT22;36061;48.116;11.612;2023-03-01T05:13:42;0.40;99.90
50162;DHT22;36061;48.116;11.612;2023-03-01T05:16:10;0.30;99.90
50162;DHT22;36061;48.116;11.612;2023-03-01T05:18:38;0.40;99.90
50162;DHT22;36061;48.116;11.612;2023-03-01T05:21:07;0.30;99.90
50162;DHT22;36061;48.116;11.612;2023-03-01T05:23:34;0.30;99.90
50162;DHT22;36061;48.116;11.612;2023-03-01T05:26:03;0.30;99.90
50162;DHT22;36061;48.116;11.612;2023-03-01T05:28:32;0.30;99.90
50162;DHT22;36061;48.116;11.612;2023-03-01T05:31:00;0.30;99.90
50162;DHT22;36061;48.116;11.612;2023-03-01T05:33:28;0.20;99.90
50162;DHT22;36061;48.116;11.612;2023-03-01T05:35:59;0.20;99.90
50162;DHT22;36061;48.116;11.612;2023-03-01T05:38:26;0.20;99.90
50162;DHT22;36061;48.116;11.612;2023-03-01T05:40:53;0.20;99.90
50162;DHT22;36061;48.116;11.612;2023-03-01T05:43:21;0.10;99.90
50162;DHT22;36061;48.116;11.612;2023-03-01T05:45:48;0.10;99.90
50162;DHT22;36061;48.116;11.612;2023-03-01T05:48:16;0.10;99.90
50162;DHT22;36061;48.116;11.612;2023-03-01T05:50:45;0.10;99.90
50162;DHT22;36061;48.116;11.612;2023-03-01T05:53:14;0.10;99.90
50162;DHT22;36061;48.116;11.612;2023-03-01T05:55:42;0.10;99.90
50162;DHT22;36061;48.116;11.612;2023-03-01T05:58:11;0.10;99.90
50162;DHT22;36061;48.116;11.612;2023-03-01T06:00:40;0.10;99.90
50162;DHT22;36061;48.116;11.612;2023-03-01T06:03:10;0.10;99.90
50162;DHT22;36061;48.116;11.612;2023-03-01T06:05:39;0.10;99.90
50162;DHT22;36061;48.116;11.612;2023-03-01T06:08:08;0.10;99.90
50162;DHT22;36061;48.116;11.612;2023-03-01T06:10:36;0.10;99.90
50162;DHT22;36061;48.116;11.612;2023-03-01T06:13:03;0.10;99.90
50162;DHT22;36061;48.116;11.612;2023-03-01T06:15:31;0.10;99.90
50162;DHT22;36061;48.116;11.612;2023-03-01T06:17:58;0.10;99.90
50162;DHT22;36061;48.116;11.612;2023-03-01T06:20:27;0.10;99.90
50162;DHT22;36061;48.116;11.612;2023-03-01T06:23:05;0.10;99.90
50162;DHT22;36061;48.116;11.612;2023-03-01T06:25:33;0.10;99.90
50162;DHT22;36061;48.116;11.612;2023-03-01T06:28:00;0.10;99.90
50162;DHT22;36061;48.116;11.612;2023-03-01T06:30:27;0.10;99.90
50162;DHT22;36061;48.116;11.612;2023-03-01T06:32:56;0.20;99.90
50162;DHT22;36061;48.116;11.612;2023-03-01T06:35:26;0.20;99.90
50162;DHT22;36061;48.116;11.612;2023-03-01T06:37:55;0.10;99.90
50162;DHT22;36061;48.116;11.612;2023-03-01T06:40:25;0.10;99.90
50162;DHT22;36061;48.116;11.612;2023-03-01T06:42:52;0.10;99.90
50162;DHT22;36061;48.116;11.612;2023-03-01T06:45:20;0.10;99.90
50162;DHT22;36061;48.116;11.612;2023-03-01T06:47:48;0.10;99.90
50162;DHT22;36061;48.116;11.612;2023-03-01T06:50:16;0.10;99.90
50162;DHT22;36061;48.116;11.612;2023-03-01T06:52:44;0.10;99.90
50162;DHT22;36061;48.116;11.612;2023-03-01T06:55:12;0.10;99.90
50162;DHT22;36061;48.116;11.612;2023-03-01T06:57:41;0.00;99.90
50162;DHT22;36061;48.116;11.612;2023-03-01T07:00:09;0.00;99.90
50162;DHT22;36061;48.116;11.612;2023-03-01T07:02:36;0.00;99.90
50162;DHT22;36061;48.116;11.612;2023-03-01T07:05:04;0.10;99.90
50162;DHT22;36061;48.116;11.612;2023-03-01T07:07:32;0.10;99.90
50162;DHT22;36061;48.116;11.612;2023-03-01T07:09:59;0.10;99.90
50162;DHT22;36061;48.116;11.612;2023-03-01T07:12:26;0.10;99.90
50162;DHT22;36061;48.116;11.612;2023-03-01T07:14:55;0.30;99.90
50162;DHT22;36061;48.116;11.612;2023-03-01T07:17:22;0.30;99.90
50162;DHT22;36061;48.116;11.612;2023-03-01T07:19:49;0.40;99.90
50162;DHT22;36061;48.116;11.612;2023-03-01T07:22:16;0.50;99.90
50162;DHT22;36061;48.116;11.612;2023-03-01T07:24:43;0.50;99.90
50162;DHT22;36061;48.116;11.612;2023-03-01T07:27:11;0.40;99.90
50162;DHT22;36061;48.116;11.612;2023-03-01T07:29:38;0.40;99.90
50162;DHT22;36061;48.116;11.612;2023-03-01T07:32:07;0.40;99.90
50162;DHT22;36061;48.116;11.612;2023-03-01T07:34:34;0.50;99.90
50162;DHT22;36061;48.116;11.612;2023-03-01T07:37:01;0.40;99.90
50162;DHT22;36061;48.116;11.612;2023-03-01T07:39:28;0.50;99.90
50162;DHT22;36061;48.116;11.612;2023-03-01T07:41:55;0.40;99.90
50162;DHT22;36061;48.116;11.612;2023-03-01T07:44:23;0.40;99.90
50162;DHT22;36061;48.116;11.612;2023-03-01T07:46:50;0.40;99.90
50162;DHT22;36061;48.116;11.612;2023-03-01T07:49:23;0.40;99.90
50162;DHT22;36061;48.116;11.612;2023-03-01T07:51:52;0.50;99.90
50162;DHT22;36061;48.116;11.612;2023-03-01T07:54:19;0.50;99.90
50162;DHT22;36061;48.116;11.612;2023-03-01T07:56:46;0.50;99.90
50162;DHT22;36061;48.116;11.612;2023-03-01T08:03:26;0.60;99.90
50162;DHT22;36061;48.116;11.612;2023-03-01T08:05:55;0.70;99.90
50162;DHT22;36061;48.116;11.612;2023-03-01T08:08:22;0.90;99.90
50162;DHT22;36061;48.116;11.612;2023-03-01T08:10:49;0.70;99.90
50162;DHT22;36061;48.116;11.612;2023-03-01T08:13:16;0.70;99.90
50162;DHT22;36061;48.116;11.612;2023-03-01T08:15:48;0.70;99.90
50162;DHT22;36061;48.116;11.612;2023-03-01T08:18:15;0.80;99.90
50162;DHT22;36061;48.116;11.612;2023-03-01T08:20:43;0.80;99.90
50162;DHT22;36061;48.116;11.612;2023-03-01T08:23:11;0.80;99.90
50162;DHT22;36061;48.116;11.612;2023-03-01T08:25:39;0.90;99.90
50162;DHT22;36061;48.116;11.612;2023-03-01T08:28:06;0.90;99.90
50162;DHT22;36061;48.116;11.612;2023-03-01T08:30:34;0.90;99.90
50162;DHT22;36061;48.116;11.612;2023-03-01T08:33:01;1.00;99.90
50162;DHT22;36061;48.116;11.612;2023-03-01T08:35:29;1.10;99.90
50162;DHT22;36061;48.116;11.612;2023-03-01T08:37:56;1.10;99.90
50162;DHT22;36061;48.116;11.612;2023-03-01T08:40:24;1.10;99.90
50162;DHT22;36061;48.116;11.612;2023-03-01T08:42:52;1.10;99.90
50162;DHT22;36061;48.116;11.612;2023-03-01T08:45:19;1.10;99.90
50162;DHT22;36061;48.116;11.612;2023-03-01T08:47:46;1.10;99.90
50162;DHT22;36061;48.116;11.612;2023-03-01T08:50:13;1.20;99.90
50162;DHT22;36061;48.116;11.612;2023-03-01T08:52:41;1.30;99.90
50162;DHT22;36061;48.116;11.612;2023-03-01T08:55:08;1.30;99.90
50162;DHT22;36061;48.116;11.612;2023-03-01T08:57:37;1.40;99.90
50162;DHT22;36061;48.116;11.612;2023-03-01T09:00:05;1.40;99.90
50162;DHT22;36061;48.116;11.612;2023-03-01T09:02:34;1.50;99.90
50162;DHT22;36061;48.116;11.612;2023-03-01T09:05:06;1.50;99.90
50162;DHT22;36061;48.116;11.612;2023-03-01T09:07:33;1.50;99.90
50162;DHT22;36061;48.116;11.612;2023-03-01T09:10:00;1.60;99.90
50162;DHT22;36061;48.116;11.612;2023-03-01T09:12:28;1.70;99.90
50162;DHT22;36061;48.116;11.612;2023-03-01T09:14:56;1.70;99.90
50162;DHT22;36061;48.116;11.612;2023-03-01T09:17:23;1.70;99.90
50162;DHT22;36061;48.116;11.612;2023-03-01T09:19:50;1.80;99.90
50162;DHT22;36061;48.116;11.612;2023-03-01T09:22:18;1.70;99.90
50162;DHT22;36061;48.116;11.612;2023-03-01T09:24:45;1.70;99.90
50162;DHT22;36061;48.116;11.612;2023-03-01T09:27:12;1.80;99.90
50162;DHT22;36061;48.116;11.612;2023-03-01T09:29:40;1.80;99.90
50162;DHT22;36061;48.116;11.612;2023-03-01T09:32:09;1.90;99.90
50162;DHT22;36061;48.116;11.612;2023-03-01T09:34:36;1.90;99.90
50162;DHT22;36061;48.116;11.612;2023-03-01T09:37:24;1.90;99.90
50162;DHT22;36061;48.116;11.612;2023-03-01T09:39:51;1.90;99.90
50162;DHT22;36061;48.116;11.612;2023-03-01T09:42:18;2.00;99.90
50162;DHT22;36061;48.116;11.612;2023-03-01T09:44:49;2.00;99.90
50162;DHT22;36061;48.116;11.612;2023-03-01T09:47:21;2.00;99.90
50162;DHT22;36061;48.116;11.612;2023-03-01T09:49:57;2.00;99.90
50162;DHT22;36061;48.116;11.612;2023-03-01T09:52:30;1.90;99.90
50162;DHT22;36061;48.116;11.612;2023-03-01T09:55:00;2.00;99.90
50162;DHT22;36061;48.116;11.612;2023-03-01T09:57:33;2.00;99.90
50162;DHT22;36061;48.116;11.612;2023-03-01T10:00:12;2.00;99.90
50162;DHT22;36061;48.116;11.612;2023-03-01T10:02:48;2.20;99.90
50162;DHT22;36061;48.116;11.612;2023-03-01T10:05:31;2.10;99.90
50162;DHT22;36061;48.116;11.612;2023-03-01T10:08:14;2.20;99.90
50162;DHT22;36061;48.116;11.612;2023-03-01T10:10:47;2.20;99.90
50162;DHT22;36061;48.116;11.612;2023-03-01T10:13:18;2.30;99.90
50162;DHT22;36061;48.116;11.612;2023-03-01T10:15:50;2.30;99.90
50162;DHT22;36061;48.116;11.612;2023-03-01T10:18:24;2.30;99.90
50162;DHT22;36061;48.116;11.612;2023-03-01T10:20:53;2.30;99.90
50162;DHT22;36061;48.116;11.612;2023-03-01T10:23:23;2.30;99.90
50162;DHT22;36061;48.116;11.612;2023-03-01T10:26:12;2.30;99.90
50162;DHT22;36061;48.116;11.612;2023-03-01T10:28:48;2.40;99.90
50162;DHT22;36061;48.116;11.612;2023-03-01T10:31:21;2.40;99.90
50162;DHT22;36061;48.116;11.612;2023-03-01T10:33:55;2.50;99.90
50162;DHT22;36061;48.116;11.612;2023-03-01T10:36:24;2.50;99.90
50162;DHT22;36061;48.116;11.612;2023-03-01T10:38:53;2.60;99.90
50162;DHT22;36061;48.116;11.612;2023-03-01T10:41:25;2.70;99.90
50162;DHT22;36061;48.116;11.612;2023-03-01T10:43:54;2.70;99.90
50162;DHT22;36061;48.116;11.612;2023-03-01T10:46:26;2.70;99.90
50162;DHT22;36061;48.116;11.612;2023-03-01T10:49:10;2.70;99.90
50162;DHT22;36061;48.116;11.612;2023-03-01T10:51:39;2.80;99.90
50162;DHT22;36061;48.116;11.612;2023-03-01T10:54:16;2.80;99.90
50162;DHT22;36061;48.116;11.612;2023-03-01T10:56:48;2.80;99.90
50162;DHT22;36061;48.116;11.612;2023-03-01T10:59:25;2.90;99.90
50162;DHT22;36061;48.116;11.612;2023-03-01T11:02:14;2.80;99.90
50162;DHT22;36061;48.116;11.612;2023-03-01T11:04:57;2.90;99.90
50162;DHT22;36061;48.116;11.612;2023-03-01T11:07:24;3.00;99.90
50162;DHT22;36061;48.116;11.612;2023-03-01T11:09:51;3.10;99.90
50162;DHT22;36061;48.116;11.612;2023-03-01T11:12:20;3.10;99.90
50162;DHT22;36061;48.116;11.612;2023-03-01T11:14:49;3.10;99.90
50162;DHT22;36061;48.116;11.612;2023-03-01T11:17:24;3.10;99.90
50162;DHT22;36061;48.116;11.612;2023-03-01T11:20:13;3.10;99.90
50162;DHT22;36061;48.116;11.612;2023-03-01T11:22:45;3.10;99.90
50162;DHT22;36061;48.116;11.612;2023-03-01T11:25:14;3.40;99.90
50162;DHT22;36061;48.116;11.612;2023-03-01T11:27:44;3.00;99.90
50162;DHT22;36061;48.116;11.612;2023-03-01T11:30:19;2.90;99.90
50162;DHT22;36061;48.116;11.612;2023-03-01T11:32:52;3.00;99.90
50162;DHT22;36061;48.116;11.612;2023-03-01T11:35:25;3.10;99.90
50162;DHT22;36061;48.116;11.612;2023-03-01T11:38:02;3.00;99.90
50162;DHT22;36061;48.116;11.612;2023-03-01T11:40:33;3.10;99.90
50162;DHT22;36061;48.116;11.612;2023-03-01T11:43:12;3.10;99.90
50162;DHT22;36061;48.116;11.612;2023-03-01T11:46:01;3.20;99.90
50162;DHT22;36061;48.116;11.612;2023-03-01T11:48:48;3.30;99.90
50162;DHT22;36061;48.116;11.612;2023-03-01T11:51:25;3.30;99.90
50162;DHT22;36061;48.116;11.612;2023-03-01T11:54:14;3.30;99.90
50162;DHT22;36061;48.116;11.612;2023-03-01T11:56:48;3.30;99.90
50162;DHT22;36061;48.116;11.612;2023-03-01T11:59:32;3.30;99.90
50162;DHT22;36061;48.116;11.612;2023-03-01T12:05:18;3.50;99.90
50162;DHT22;36061;48.116;11.612;2023-03-01T12:07:55;3.60;99.90
50162;DHT22;36061;48.116;11.612;2023-03-01T12:10:27;3.60;99.90
50162;DHT22;36061;48.116;11.612;2023-03-01T12:13:09;3.60;99.90
50162;DHT22;36061;48.116;11.612;2023-03-01T12:15:53;3.70;99.90
50162;DHT22;36061;48.116;11.612;2023-03-01T12:18:38;3.80;99.90
50162;DHT22;36061;48.116;11.612;2023-03-01T12:21:17;3.80;99.90
50162;DHT22;36061;48.116;11.612;2023-03-01T12:27:03;3.90;99.90
50162;DHT22;36061;48.116;11.612;2023-03-01T12:29:39;4.00;99.90
50162;DHT22;36061;48.116;11.612;2023-03-01T12:32:25;4.10;99.90
50162;DHT22;36061;48.116;11.612;2023-03-01T12:35:16;4.10;99.90
50162;DHT22;36061;48.116;11.612;2023-03-01T12:37:54;4.10;99.90
50162;DHT22;36061;48.116;11.612;2023-03-01T12:40:38;4.10;99.90
50162;DHT22;36061;48.116;11.612;2023-03-01T12:43:26;4.10;99.90
50162;DHT22;36061;48.116;11.612;2023-03-01T12:46:10;4.10;99.90
50162;DHT22;36061;48.116;11.612;2023-03-01T12:48:48;4.10;99.90
50162;DHT22;36061;48.116;11.612;2023-03-01T12:51:20;4.10;99.90
50162;DHT22;36061;48.116;11.612;2023-03-01T12:53:51;4.10;99.90
50162;DHT22;36061;48.116;11.612;2023-03-01T12:56:23;4.20;99.90
50162;DHT22;36061;48.116;11.612;2023-03-01T12:58:57;4.30;99.90
50162;DHT22;36061;48.116;11.612;2023-03-01T13:01:35;4.30;99.90
50162;DHT22;36061;48.116;11.612;2023-03-01T13:04:25;4.40;99.90
50162;DHT22;36061;48.116;11.612;2023-03-01T13:07:11;4.40;99.90
50162;DHT22;36061;48.116;11.612;2023-03-01T13:09:47;4.40;99.90
50162;DHT22;36061;48.116;11.612;2023-03-01T13:12:46;4.50;99.90
50162;DHT22;36061;48.116;11.612;2023-03-01T13:15:31;4.50;99.90
50162;DHT22;36061;48.116;11.612;2023-03-01T13:17:59;4.60;99.90
50162;DHT22;36061;48.116;11.612;2023-03-01T13:20:31;4.60;99.90
50162;DHT22;36061;48.116;11.612;2023-03-01T13:23:07;4.60;99.90
50162;DHT22;36061;48.116;11.612;2023-03-01T13:28:50;4.70;99.90
50162;DHT22;36061;48.116;11.612;2023-03-01T13:34:43;4.80;99.90
50162;DHT22;36061;48.116;11.612;2023-03-01T13:37:23;4.90;99.90
50162;DHT22;36061;48.116;11.612;2023-03-01T13:39:52;4.90;99.90
50162;DHT22;36061;48.116;11.612;2023-03-01T13:42:38;4.90;99.90
50162;DHT22;36061;48.116;11.612;2023-03-01T13:45:26;4.90;99.90
50162;DHT22;36061;48.116;11.612;2023-03-01T13:48:02;4.90;99.90
50162;DHT22;36061;48.116;11.612;2023-03-01T13:50:35;5.00;99.90
50162;DHT22;36061;48.116;11.612;2023-03-01T13:53:06;5.10;99.90
50162;DHT22;36061;48.116;11.612;2023-03-01T13:55:42;5.10;99.90
50162;DHT22;36061;48.116;11.612;2023-03-01T13:58:19;5.10;99.90
50162;DHT22;36061;48.116;11.612;2023-03-01T14:00:56;5.10;99.90
50162;DHT22;36061;48.116;11.612;2023-03-01T14:03:24;5.10;99.90
50162;DHT22;36061;48.116;11.612;2023-03-01T14:06:00;5.10;99.90
50162;DHT22;36061;48.116;11.612;2023-03-01T14:08:29;5.20;99.90
50162;DHT22;36061;48.116;11.612;2023-03-01T14:14:17;5.30;99.90
50162;DHT22;36061;48.116;11.612;2023-03-01T14:16:55;5.30;99.90
50162;DHT22;36061;48.116;11.612;2023-03-01T14:19:26;5.30;99.90
50162;DHT22;36061;48.116;11.612;2023-03-01T14:22:04;5.30;99.90
50162;DHT22;36061;48.116;11.612;2023-03-01T14:24:38;5.30;99.90
50162;DHT22;36061;48.116;11.612;2023-03-01T14:27:11;5.30;99.90
50162;DHT22;36061;48.116;11.612;2023-03-01T14:29:39;5.40;99.90
50162;DHT22;36061;48.116;11.612;2023-03-01T14:32:16;5.40;99.90
50162;DHT22;36061;48.116;11.612;2023-03-01T14:34:46;5.50;99.90
50162;DHT22;36061;48.116;11.612;2023-03-01T14:37:20;5.50;99.90
50162;DHT22;36061;48.116;11.612;2023-03-01T14:39:48;5.50;99.90
50162;DHT22;36061;48.116;11.612;2023-03-01T14:42:16;5.40;99.90
50162;DHT22;36061;48.116;11.612;2023-03-01T14:44:46;5.50;99.90
50162;DHT22;36061;48.116;11.612;2023-03-01T14:47:22;5.40;99.90
50162;DHT22;36061;48.116;11.612;2023-03-01T14:49:56;5.50;99.90
50162;DHT22;36061;48.116;11.612;2023-03-01T14:52:30;5.40;99.90
50162;DHT22;36061;48.116;11.612;2023-03-01T14:55:00;5.40;99.90
50162;DHT22;36061;48.116;11.612;2023-03-01T14:57:29;5.40;99.90
50162;DHT22;36061;48.116;11.612;2023-03-01T14:59:58;5.40;99.90
50162;DHT22;36061;48.116;11.612;2023-03-01T15:02:32;5.40;99.90
50162;DHT22;36061;48.116;11.612;2023-03-01T15:05:02;5.40;99.90
50162;DHT22;36061;48.116;11.612;2023-03-01T15:07:33;5.50;99.90
50162;DHT22;36061;48.116;11.612;2023-03-01T15:10:01;5.60;99.90
50162;DHT22;36061;48.116;11.612;2023-03-01T15:12:36;5.60;99.90
50162;DHT22;36061;48.116;11.612;2023-03-01T15:15:35;5.60;99.90
50162;DHT22;36061;48.116;11.612;2023-03-01T15:18:12;5.60;99.90
50162;DHT22;36061;48.116;11.612;2023-03-01T15:20:40;5.60;99.90
50162;DHT22;36061;48.116;11.612;2023-03-01T15:23:18;5.60;99.90
50162;DHT22;36061;48.116;11.612;2023-03-01T15:25:46;5.60;99.90
50162;DHT22;36061;48.116;11.612;2023-03-01T15:28:20;5.60;99.90
50162;DHT22;36061;48.116;11.612;2023-03-01T15:30:53;5.60;99.90
50162;DHT22;36061;48.116;11.612;2023-03-01T15:33:35;5.60;99.90
50162;DHT22;36061;48.116;11.612;2023-03-01T15:38:56;5.70;99.90
50162;DHT22;36061;48.116;11.612;2023-03-01T15:41:26;5.70;99.90
50162;DHT22;36061;48.116;11.612;2023-03-01T15:43:54;5.60;99.90
50162;DHT22;36061;48.116;11.612;2023-03-01T15:46:31;5.60;99.90
50162;DHT22;36061;48.116;11.612;2023-03-01T15:49:03;5.60;99.90
50162;DHT22;36061;48.116;11.612;2023-03-01T15:51:33;5.60;99.90
50162;DHT22;36061;48.116;11.612;2023-03-01T15:54:04;5.60;99.90
50162;DHT22;36061;48.116;11.612;2023-03-01T15:56:33;5.50;99.90
50162;DHT22;36061;48.116;11.612;2023-03-01T15:59:02;5.50;99.90
50162;DHT22;36061;48.116;11.612;2023-03-01T16:01:30;5.50;99.90
50162;DHT22;36061;48.116;11.612;2023-03-01T16:04:01;5.40;99.90
50162;DHT22;36061;48.116;11.612;2023-03-01T16:06:29;5.40;99.90
50162;DHT22;36061;48.116;11.612;2023-03-01T16:08:57;5.40;99.90
50162;DHT22;36061;48.116;11.612;2023-03-01T16:11:24;5.50;99.90
50162;DHT22;36061;48.116;11.612;2023-03-01T16:13:51;5.50;99.90
50162;DHT22;36061;48.116;11.612;2023-03-01T16:16:19;5.40;99.90
50162;DHT22;36061;48.116;11.612;2023-03-01T16:18:46;5.40;99.90